createdAt,value
2022-10-06T00:02:32.744Z,14.54
2022-10-06T00:05:04.996Z,14.56
2022-10-06T00:07:38.635Z,14.58
2022-10-06T00:10:12.315Z,14.53
2022-10-06T00:12:46.036Z,14.65
2022-10-06T00:15:21.157Z,14.53
2022-10-06T00:17:56.541Z,14.50
2022-10-06T00:20:29.957Z,14.62
2022-10-06T00:23:02.436Z,14.54
2022-10-06T00:25:34.485Z,14.49
2022-10-06T00:28:06.884Z,14.60
2022-10-06T00:30:38.956Z,14.71
2022-10-06T00:33:19.445Z,14.65
2022-10-06T00:35:58.996Z,14.66
2022-10-06T00:38:31.821Z,14.67
2022-10-06T00:41:04.357Z,14.73
2022-10-06T00:43:48.117Z,14.81
2022-10-06T00:46:26.554Z,14.91
2022-10-06T00:49:09.120Z,15.07
2022-10-06T00:51:46.005Z,15.19
2022-10-06T00:54:19.835Z,15.24
2022-10-06T00:56:52.155Z,15.32
2022-10-06T00:59:24.555Z,15.30
2022-10-06T01:02:00.276Z,15.39
2022-10-06T01:04:39.635Z,15.33
2022-10-06T01:07:11.836Z,15.42
2022-10-06T01:09:44.436Z,15.48
2022-10-06T01:12:17.357Z,15.50
2022-10-06T01:14:49.884Z,15.67
2022-10-06T01:17:25.355Z,15.78
2022-10-06T01:20:03.476Z,15.90
2022-10-06T01:22:40.317Z,15.71
2022-10-06T01:25:15.117Z,15.70
2022-10-06T01:27:51.716Z,15.87
2022-10-06T01:30:28.318Z,15.93
2022-10-06T01:33:00.235Z,15.85
2022-10-06T01:35:32.359Z,15.97
2022-10-06T01:38:07.116Z,16.02
2022-10-06T01:40:39.236Z,16.05
2022-10-06T01:43:11.285Z,15.92
2022-10-06T01:45:43.275Z,15.80
2022-10-06T01:48:15.116Z,15.75
2022-10-06T01:50:47.198Z,15.84
2022-10-06T01:53:21.916Z,15.68
2022-10-06T01:55:54.116Z,15.43
2022-10-06T01:58:26.151Z,15.06
2022-10-06T02:00:58.596Z,15.10
2022-10-06T02:03:30.600Z,14.94
2022-10-06T02:06:02.805Z,15.09
2022-10-06T02:08:38.117Z,15.05
2022-10-06T02:11:12.401Z,14.95
2022-10-06T02:13:44.677Z,14.87
2022-10-06T02:16:17.000Z,14.84
2022-10-06T02:18:48.835Z,14.77
2022-10-06T02:21:23.396Z,14.83
2022-10-06T02:23:58.035Z,14.70
2022-10-06T02:26:30.398Z,14.71
2022-10-06T02:29:02.435Z,14.74
2022-10-06T02:31:34.674Z,14.76
2022-10-06T02:34:06.877Z,14.77
2022-10-06T02:36:39.036Z,14.79
2022-10-06T02:39:14.076Z,14.75
2022-10-06T02:41:46.875Z,14.72
2022-10-06T02:44:19.118Z,14.83
2022-10-06T02:46:52.588Z,14.67
2022-10-06T02:49:24.324Z,14.73
2022-10-06T02:51:56.485Z,14.73
2022-10-06T02:54:30.996Z,14.75
2022-10-06T02:57:03.115Z,14.78
2022-10-06T02:59:35.517Z,14.74
2022-10-06T03:02:08.101Z,14.76
2022-10-06T03:04:40.414Z,14.87
2022-10-06T03:07:12.755Z,14.91
2022-10-06T03:09:47.595Z,14.94
2022-10-06T03:12:20.029Z,14.99
2022-10-06T03:14:52.525Z,15.01
2022-10-06T03:17:24.599Z,15.04
2022-10-06T03:19:57.198Z,15.09
2022-10-06T03:22:29.797Z,15.39
2022-10-06T03:25:04.564Z,15.53
2022-10-06T03:27:37.198Z,15.55
2022-10-06T03:30:11.035Z,15.32
2022-10-06T03:32:43.365Z,15.31
2022-10-06T03:35:15.638Z,15.36
2022-10-06T03:37:48.077Z,15.46
2022-10-06T03:40:22.880Z,15.56
2022-10-06T03:42:55.325Z,15.47
2022-10-06T03:45:27.538Z,15.52
2022-10-06T03:48:00.716Z,15.62
2022-10-06T03:50:32.877Z,15.20
2022-10-06T03:53:05.558Z,15.41
2022-10-06T03:55:40.275Z,15.65
2022-10-06T03:58:12.838Z,15.39
2022-10-06T04:00:46.687Z,15.36
2022-10-06T04:03:23.165Z,15.34
2022-10-06T04:06:00.075Z,15.18
2022-10-06T04:08:33.955Z,15.31
2022-10-06T04:11:14.724Z,15.53
2022-10-06T04:13:48.395Z,15.73
2022-10-06T04:16:22.882Z,15.63
2022-10-06T04:19:03.518Z,15.59
2022-10-06T04:21:38.796Z,15.42
2022-10-06T04:24:12.876Z,15.54
2022-10-06T04:26:50.276Z,15.46
2022-10-06T04:29:22.914Z,15.30
2022-10-06T04:31:55.202Z,15.20
2022-10-06T04:34:28.395Z,15.30
2022-10-06T04:37:00.595Z,15.49
2022-10-06T04:39:33.115Z,15.40
2022-10-06T04:42:08.076Z,15.32
2022-10-06T04:44:40.646Z,15.40
2022-10-06T04:47:12.758Z,15.33
2022-10-06T04:49:45.118Z,15.27
2022-10-06T04:52:17.844Z,15.32
2022-10-06T04:54:50.197Z,15.34
2022-10-06T04:57:25.165Z,15.50
2022-10-06T05:00:14.629Z,15.14
2022-10-06T05:02:47.356Z,15.33
2022-10-06T05:05:20.036Z,15.29
2022-10-06T05:07:52.524Z,15.30
2022-10-06T05:10:25.036Z,15.17
2022-10-06T05:12:59.917Z,15.22
2022-10-06T05:15:32.478Z,15.07
2022-10-06T05:18:04.716Z,14.97
2022-10-06T05:20:37.277Z,15.10
2022-10-06T05:23:10.918Z,15.14
2022-10-06T05:25:43.276Z,15.17
2022-10-06T05:28:21.191Z,15.34
2022-10-06T05:31:00.126Z,15.16
2022-10-06T05:33:34.405Z,15.03
2022-10-06T05:36:10.165Z,14.89
2022-10-06T05:38:43.287Z,15.00
2022-10-06T05:41:17.527Z,14.80
2022-10-06T05:43:52.519Z,14.95
2022-10-06T05:46:33.396Z,14.85
2022-10-06T05:49:07.481Z,14.97
2022-10-06T05:51:41.756Z,14.91
2022-10-06T05:54:14.602Z,15.02
2022-10-06T05:56:47.212Z,14.97
2022-10-06T05:59:22.359Z,14.68
2022-10-06T06:01:55.417Z,14.56
2022-10-06T06:04:27.717Z,14.56
2022-10-06T06:07:00.201Z,14.67
2022-10-06T06:09:32.596Z,14.43
2022-10-06T06:12:05.320Z,14.82
2022-10-06T06:14:52.450Z,14.46
2022-10-06T06:17:28.757Z,14.43
2022-10-06T06:20:00.917Z,14.28
2022-10-06T06:22:33.438Z,14.31
2022-10-06T06:25:05.718Z,14.04
2022-10-06T06:27:39.479Z,14.29
2022-10-06T06:30:17.237Z,14.36
2022-10-06T06:32:50.276Z,14.33
2022-10-06T06:35:22.595Z,14.23
2022-10-06T06:37:55.275Z,14.24
2022-10-06T06:40:27.598Z,14.06
2022-10-06T06:43:00.038Z,14.09
2022-10-06T06:45:34.957Z,14.08
2022-10-06T06:48:08.006Z,14.22
2022-10-06T06:50:40.325Z,14.00
2022-10-06T06:53:16.153Z,14.23
2022-10-06T06:55:53.035Z,14.27
2022-10-06T06:58:25.608Z,14.44
2022-10-06T07:01:08.164Z,14.30
2022-10-06T07:03:58.055Z,14.40
2022-10-06T07:06:32.598Z,14.41
2022-10-06T07:09:05.120Z,14.67
2022-10-06T07:11:38.956Z,14.47
2022-10-06T07:14:13.518Z,14.34
2022-10-06T07:17:00.557Z,14.53
2022-10-06T07:19:45.196Z,14.23
2022-10-06T07:22:33.275Z,14.16
2022-10-06T07:25:15.356Z,14.50
2022-10-06T07:27:51.315Z,14.47
2022-10-06T07:30:26.157Z,14.43
2022-10-06T07:33:01.077Z,14.53
2022-10-06T07:35:33.717Z,14.36
2022-10-06T07:38:08.268Z,14.56
2022-10-06T07:40:46.187Z,14.66
2022-10-06T07:43:48.277Z,14.76
2022-10-06T07:46:20.976Z,15.09
2022-10-06T07:48:55.959Z,14.84
2022-10-06T07:51:28.646Z,15.05
2022-10-06T07:54:00.962Z,15.49
2022-10-06T07:56:33.639Z,15.27
2022-10-06T07:59:06.238Z,15.27
2022-10-06T08:01:38.926Z,15.35
2022-10-06T08:04:13.961Z,15.26
2022-10-06T08:06:47.881Z,15.86
2022-10-06T08:09:21.084Z,15.91
2022-10-06T08:11:53.613Z,15.92
2022-10-06T08:14:25.878Z,16.63
2022-10-06T08:16:59.277Z,17.07
2022-10-06T08:19:51.597Z,17.43
2022-10-06T08:22:27.718Z,16.94
2022-10-06T08:25:08.519Z,16.65
2022-10-06T08:27:44.440Z,16.89
2022-10-06T08:30:17.359Z,17.18
2022-10-06T08:32:50.238Z,17.71
2022-10-06T08:35:25.206Z,18.29
2022-10-06T08:37:57.716Z,19.17
2022-10-06T08:40:30.835Z,18.30
2022-10-06T08:43:05.557Z,18.75
2022-10-06T08:45:43.491Z,17.83
2022-10-06T08:48:20.319Z,18.23
2022-10-06T08:51:06.838Z,19.15
2022-10-06T08:53:47.200Z,20.34
2022-10-06T08:56:27.361Z,18.37
2022-10-06T08:59:04.558Z,17.76
2022-10-06T09:01:45.308Z,18.23
2022-10-06T09:04:26.759Z,17.36
2022-10-06T09:07:11.344Z,17.27
2022-10-06T09:10:07.761Z,17.00
2022-10-06T09:12:45.600Z,16.47
2022-10-06T09:15:36.216Z,16.62
2022-10-06T09:18:15.812Z,17.38
2022-10-06T09:20:54.357Z,17.39
2022-10-06T09:23:46.414Z,17.16
2022-10-06T09:26:22.641Z,17.23
2022-10-06T09:28:56.039Z,17.44
2022-10-06T09:31:30.466Z,17.98
2022-10-06T09:34:07.683Z,18.83
2022-10-06T09:37:03.174Z,18.05
2022-10-06T09:39:39.759Z,18.15
2022-10-06T09:42:18.559Z,17.94
2022-10-06T09:45:00.477Z,17.55
2022-10-06T09:47:45.384Z,17.83
2022-10-06T09:50:26.518Z,18.30
2022-10-06T09:53:17.081Z,18.52
2022-10-06T09:55:55.896Z,18.72
2022-10-06T09:58:38.056Z,18.45
2022-10-06T10:01:11.601Z,18.65
2022-10-06T10:04:22.103Z,18.30
2022-10-06T10:06:44.104Z,18.71
2022-10-06T10:09:32.456Z,19.06
2022-10-06T10:12:30.296Z,18.72
2022-10-06T10:15:05.434Z,19.36
2022-10-06T10:17:50.075Z,18.33
2022-10-06T10:20:34.557Z,18.65
2022-10-06T10:23:23.386Z,18.67
2022-10-06T10:26:18.600Z,18.44
2022-10-06T10:29:33.014Z,18.75
2022-10-06T10:32:15.673Z,19.09
2022-10-06T10:35:12.354Z,19.82
2022-10-06T10:37:51.593Z,20.29
2022-10-06T10:40:39.117Z,19.85
2022-10-06T10:43:21.835Z,19.38
2022-10-06T10:46:01.801Z,19.99
2022-10-06T10:48:38.876Z,20.27
2022-10-06T10:51:16.403Z,20.57
2022-10-06T10:53:53.157Z,19.70
2022-10-06T10:56:29.516Z,19.81
2022-10-06T10:59:08.752Z,19.48
2022-10-06T11:01:51.965Z,19.02
2022-10-06T11:04:24.113Z,19.40
2022-10-06T11:07:23.716Z,18.60
2022-10-06T11:10:04.996Z,18.99
2022-10-06T11:12:56.313Z,19.02
2022-10-06T11:15:45.154Z,18.99
2022-10-06T11:18:30.954Z,18.85
2022-10-06T11:21:11.113Z,19.47
2022-10-06T11:23:54.914Z,20.23
2022-10-06T11:26:52.440Z,19.65
2022-10-06T11:29:35.157Z,19.34
2022-10-06T11:32:20.515Z,19.13
2022-10-06T11:34:56.034Z,19.16
2022-10-06T11:37:39.198Z,18.38
2022-10-06T11:40:34.953Z,18.51
2022-10-06T11:43:17.409Z,18.65
2022-10-06T11:46:00.390Z,17.91
2022-10-06T11:48:35.037Z,18.03
2022-10-06T11:51:34.033Z,18.56
2022-10-06T11:54:06.594Z,18.44
2022-10-06T11:56:42.602Z,18.02
2022-10-06T11:59:28.756Z,17.78
2022-10-06T12:02:05.214Z,17.71
2022-10-06T12:04:37.842Z,17.64
2022-10-06T12:07:13.352Z,17.62
2022-10-06T12:09:52.977Z,17.47
2022-10-06T12:13:31.722Z,17.60
2022-10-06T12:17:06.047Z,17.35
2022-10-06T12:19:23.993Z,17.21
2022-10-06T12:22:04.194Z,17.32
2022-10-06T12:24:46.234Z,17.62
2022-10-06T12:27:33.876Z,17.64
2022-10-06T12:30:17.993Z,17.58
2022-10-06T12:32:56.159Z,17.79
2022-10-06T12:35:34.677Z,18.00
2022-10-06T12:38:07.921Z,18.03
2022-10-06T12:40:51.997Z,18.32
2022-10-06T12:43:34.800Z,17.94
2022-10-06T12:46:16.660Z,18.32
2022-10-06T12:49:06.080Z,18.28
2022-10-06T12:51:41.835Z,18.32
2022-10-06T12:54:20.680Z,17.79
2022-10-06T12:57:03.712Z,18.02
2022-10-06T12:59:41.152Z,17.58
2022-10-06T13:02:21.473Z,17.89
2022-10-06T13:05:09.995Z,17.89
2022-10-06T13:08:02.995Z,18.23
2022-10-06T13:10:36.214Z,18.43
2022-10-06T13:13:24.715Z,18.03
2022-10-06T13:16:00.873Z,18.40
2022-10-06T13:18:34.276Z,18.42
2022-10-06T13:21:06.837Z,17.58
2022-10-06T13:23:41.475Z,17.64
2022-10-06T13:26:23.753Z,17.73
2022-10-06T13:29:00.194Z,17.71
2022-10-06T13:31:34.913Z,17.78
2022-10-06T13:34:09.512Z,17.84
2022-10-06T13:36:43.552Z,17.79
2022-10-06T13:39:17.713Z,17.15
2022-10-06T13:41:53.298Z,17.04
2022-10-06T13:44:39.357Z,17.17
2022-10-06T13:47:19.514Z,17.43
2022-10-06T13:49:57.441Z,16.96
2022-10-06T13:52:37.283Z,16.94
2022-10-06T13:55:20.712Z,17.13
2022-10-06T13:57:54.526Z,17.09
2022-10-06T14:00:33.673Z,17.24
2022-10-06T14:03:23.610Z,16.99
2022-10-06T14:06:09.436Z,17.00
2022-10-06T14:08:42.519Z,16.69
2022-10-06T14:11:15.034Z,17.04
2022-10-06T14:13:54.636Z,17.18
2022-10-06T14:16:30.954Z,17.22
2022-10-06T14:19:05.726Z,17.17
2022-10-06T14:21:42.807Z,17.24
2022-10-06T14:24:28.603Z,17.55
2022-10-06T14:27:05.162Z,17.64
2022-10-06T14:29:38.205Z,17.49
2022-10-06T14:32:17.401Z,17.53
2022-10-06T14:34:49.995Z,16.87
2022-10-06T14:37:22.241Z,16.68
2022-10-06T14:39:56.413Z,17.08
2022-10-06T14:42:28.851Z,17.31
2022-10-06T14:45:01.689Z,17.27
2022-10-06T14:55:41.243Z,17.50
2022-10-06T14:58:14.083Z,17.14
2022-10-06T15:00:47.003Z,16.19
2022-10-06T15:03:19.324Z,16.45
2022-10-06T15:06:03.441Z,16.59
2022-10-06T15:08:35.804Z,16.50
2022-10-06T15:11:10.403Z,16.50
2022-10-06T15:13:42.521Z,16.63
2022-10-06T15:16:14.479Z,16.62
2022-10-06T15:18:47.322Z,16.50
2022-10-06T15:21:19.561Z,16.50
2022-10-06T15:23:52.405Z,16.48
2022-10-06T15:26:39.441Z,16.40
2022-10-06T15:29:11.785Z,16.27
2022-10-06T15:31:44.969Z,16.13
2022-10-06T15:34:18.194Z,16.13
2022-10-06T15:36:52.792Z,16.17
2022-10-06T15:39:26.910Z,16.18
2022-10-06T15:42:02.222Z,16.03
2022-10-06T15:44:36.792Z,16.07
2022-10-06T15:47:10.311Z,15.94
2022-10-06T15:49:42.479Z,15.92
2022-10-06T15:52:17.999Z,15.93
2022-10-06T15:54:50.322Z,15.91
2022-10-06T15:57:25.698Z,15.79
2022-10-06T15:59:58.095Z,15.83
2022-10-06T16:02:35.728Z,15.82
2022-10-06T16:05:45.376Z,15.70
2022-10-06T16:08:17.299Z,15.52
2022-10-06T16:10:53.296Z,15.51
2022-10-06T16:13:27.774Z,15.39
2022-10-06T16:16:00.750Z,15.38
2022-10-06T16:18:34.693Z,15.11
2022-10-06T16:21:06.933Z,15.25
2022-10-06T16:23:38.772Z,15.21
2022-10-06T16:26:11.136Z,15.11
2022-10-06T16:29:00.174Z,15.09
2022-10-06T16:31:51.315Z,15.05
2022-10-06T16:34:23.537Z,14.98
2022-10-06T16:36:55.651Z,14.92
2022-10-06T16:39:27.735Z,14.87
2022-10-06T16:41:59.933Z,14.80
2022-10-06T16:44:34.532Z,14.65
2022-10-06T16:47:06.902Z,14.62
2022-10-06T16:49:38.773Z,14.55
2022-10-06T16:52:11.029Z,14.46
2022-10-06T16:54:42.896Z,14.50
2022-10-06T16:57:15.172Z,14.37
2022-10-06T16:59:49.696Z,14.25
2022-10-06T17:02:22.214Z,14.17
2022-10-06T17:04:54.573Z,14.06
2022-10-06T17:07:26.892Z,14.13
2022-10-06T17:10:18.874Z,14.04
2022-10-06T17:12:50.725Z,13.96
2022-10-06T17:15:25.226Z,13.91
2022-10-06T17:17:57.727Z,13.91
2022-10-06T17:20:29.565Z,13.87
2022-10-06T17:23:01.647Z,13.80
2022-10-06T17:25:34.495Z,13.72
2022-10-06T17:28:07.138Z,13.54
2022-10-06T17:30:41.990Z,13.53
2022-10-06T17:33:14.544Z,13.42
2022-10-06T17:35:46.577Z,13.37
2022-10-06T17:38:19.123Z,13.30
2022-10-06T17:40:51.166Z,13.20
2022-10-06T17:43:23.472Z,13.13
2022-10-06T17:45:58.270Z,13.09
2022-10-06T17:48:30.768Z,13.06
2022-10-06T17:51:03.424Z,13.03
2022-10-06T17:53:36.523Z,12.92
2022-10-06T17:56:10.484Z,12.86
2022-10-06T17:58:44.323Z,12.90
2022-10-06T18:01:20.416Z,12.85
2022-10-06T18:03:55.666Z,12.77
2022-10-06T18:06:29.928Z,12.66
2022-10-06T18:09:03.163Z,12.62
2022-10-06T18:11:40.084Z,12.50
2022-10-06T18:14:14.425Z,12.44
2022-10-06T18:16:55.709Z,12.40
2022-10-06T18:19:30.928Z,12.46
2022-10-06T18:22:05.117Z,12.37
2022-10-06T18:24:38.273Z,12.30
2022-10-06T18:27:14.104Z,12.24
2022-10-06T18:29:46.512Z,12.20
2022-10-06T18:33:59.425Z,12.11
2022-10-06T18:38:05.553Z,12.00
2022-10-06T18:40:37.925Z,12.00
2022-10-06T18:43:10.028Z,11.93
2022-10-06T18:45:54.774Z,11.83
2022-10-06T18:48:42.024Z,11.76
2022-10-06T18:51:14.506Z,11.71
2022-10-06T18:53:46.646Z,11.68
2022-10-06T18:56:20.563Z,11.62
2022-10-06T18:58:52.725Z,11.69
2022-10-06T19:01:26.418Z,11.65
2022-10-06T19:04:05.166Z,11.56
2022-10-06T19:06:37.743Z,11.50
2022-10-06T19:09:10.185Z,11.45
2022-10-06T19:11:50.709Z,11.44
2022-10-06T19:14:25.384Z,11.38
2022-10-06T19:16:59.433Z,11.29
2022-10-06T19:19:35.403Z,11.22
2022-10-06T19:22:10.143Z,11.22
2022-10-06T19:24:44.846Z,11.26
2022-10-06T19:27:21.045Z,11.28
2022-10-06T19:29:57.086Z,11.20
2022-10-06T19:32:32.620Z,11.15
2022-10-06T19:35:10.348Z,11.11
2022-10-06T19:37:43.707Z,11.05
2022-10-06T19:40:15.984Z,11.04
2022-10-06T19:42:49.056Z,11.04
2022-10-06T19:45:21.409Z,10.96
2022-10-06T19:47:54.050Z,10.89
2022-10-06T19:50:28.845Z,10.89
2022-10-06T19:53:01.592Z,10.90
2022-10-06T19:55:33.864Z,10.88
2022-10-06T19:58:06.185Z,10.86
2022-10-06T20:00:39.225Z,10.87
2022-10-06T20:03:12.165Z,10.82
2022-10-06T20:05:46.903Z,10.77
2022-10-06T20:08:20.893Z,10.78
2022-10-06T20:10:53.013Z,10.75
2022-10-06T20:13:25.285Z,10.68
2022-10-06T20:15:57.332Z,10.64
2022-10-06T20:18:30.031Z,10.59
2022-10-06T20:21:05.024Z,10.60
2022-10-06T20:23:37.544Z,10.55
2022-10-06T20:26:14.684Z,10.54
2022-10-06T20:28:47.655Z,10.54
2022-10-06T20:31:22.913Z,10.50
2022-10-06T20:33:58.484Z,10.45
2022-10-06T20:36:35.231Z,10.43
2022-10-06T20:39:21.725Z,10.39
2022-10-06T20:41:55.845Z,10.35
2022-10-06T20:44:28.385Z,10.36
2022-10-06T20:47:00.445Z,10.35
2022-10-06T20:49:33.203Z,10.27
2022-10-06T20:52:10.264Z,10.20
2022-10-06T20:54:42.712Z,10.14
2022-10-06T20:57:15.045Z,10.09
2022-10-06T20:59:49.526Z,10.07
2022-10-06T21:02:21.644Z,10.05
2022-10-06T21:04:54.562Z,9.98
2022-10-06T21:07:29.663Z,9.93
2022-10-06T21:10:02.086Z,9.94
2022-10-06T21:12:36.964Z,9.89
2022-10-06T21:15:10.543Z,9.86
2022-10-06T21:17:44.477Z,9.85
2022-10-06T21:20:16.984Z,9.77
2022-10-06T21:22:52.922Z,9.81
2022-10-06T21:25:25.311Z,9.74
2022-10-06T21:28:13.271Z,9.75
2022-10-06T21:30:56.826Z,9.75
2022-10-06T21:33:29.365Z,9.71
2022-10-06T21:36:02.945Z,9.69
2022-10-06T21:38:41.131Z,9.67
2022-10-06T21:41:26.083Z,9.73
2022-10-06T21:43:58.625Z,9.72
2022-10-06T21:46:33.359Z,9.69
2022-10-06T21:49:07.064Z,9.73
2022-10-06T21:51:39.846Z,9.69
2022-10-06T21:54:15.548Z,9.68
2022-10-06T21:56:48.626Z,9.63
2022-10-06T21:59:21.103Z,9.62
2022-10-06T22:01:53.544Z,9.70
2022-10-06T22:04:25.643Z,9.74
2022-10-06T22:06:58.102Z,9.70
2022-10-06T22:09:33.023Z,9.57
2022-10-06T22:12:05.245Z,9.51
2022-10-06T22:14:37.204Z,9.47
2022-10-06T22:17:09.523Z,9.39
2022-10-06T22:19:41.723Z,9.35
2022-10-06T22:22:14.042Z,9.33
2022-10-06T22:27:52.584Z,9.21
2022-10-06T22:30:24.712Z,9.16
2022-10-06T22:32:57.044Z,9.12
2022-10-06T22:35:29.305Z,9.03
2022-10-06T22:38:01.690Z,9.00
2022-10-06T22:40:37.422Z,8.97
2022-10-06T22:43:09.750Z,8.97
2022-10-06T22:45:41.703Z,8.94
2022-10-06T22:48:14.023Z,8.91
2022-10-06T22:50:46.141Z,8.85
2022-10-06T22:53:18.642Z,8.82
2022-10-06T22:55:53.864Z,8.81
2022-10-06T22:58:26.382Z,8.80
2022-10-06T23:00:59.493Z,8.81
2022-10-06T23:03:32.569Z,8.73
2022-10-06T23:06:04.862Z,8.71
2022-10-06T23:08:37.703Z,8.70
2022-10-06T23:11:14.422Z,8.73
2022-10-06T23:13:48.882Z,8.69
2022-10-06T23:16:22.488Z,8.66
2022-10-06T23:18:55.883Z,8.60
2022-10-06T23:21:28.482Z,8.57
2022-10-06T23:24:03.362Z,8.52
2022-10-06T23:26:37.981Z,8.52
2022-10-06T23:29:10.244Z,8.46
2022-10-06T23:31:42.341Z,8.41
2022-10-06T23:34:14.802Z,8.39
2022-10-06T23:36:46.921Z,8.39
2022-10-06T23:39:19.604Z,8.36
2022-10-06T23:41:54.509Z,8.36
2022-10-06T23:44:27.342Z,8.36
2022-10-06T23:46:59.381Z,8.33
2022-10-06T23:49:33.704Z,8.34
2022-10-06T23:52:05.902Z,8.33
2022-10-06T23:54:38.361Z,8.30
2022-10-06T23:57:12.982Z,8.27
2022-10-06T23:59:45.383Z,8.28
